createdAt,value
2018-12-12T00:10:07.444Z,100.00
2018-12-12T00:14:52.711Z,100.00
2018-12-12T00:19:38.762Z,100.00
2018-12-12T00:24:24.148Z,100.00
2018-12-12T00:29:09.344Z,100.00
2018-12-12T00:33:53.810Z,100.00
2018-12-12T00:38:39.723Z,100.00
2018-12-12T00:43:26.124Z,100.00
2018-12-12T00:48:11.424Z,100.00
2018-12-12T00:52:59.708Z,100.00
2018-12-12T00:57:45.328Z,100.00
2018-12-12T01:02:33.614Z,100.00
2018-12-12T01:07:18.741Z,100.00
2018-12-12T01:12:08.998Z,100.00
2018-12-12T01:16:54.551Z,100.00
2018-12-12T01:21:38.905Z,100.00
2018-12-12T01:26:24.108Z,100.00
2018-12-12T01:31:09.281Z,100.00
2018-12-12T01:35:53.599Z,100.00
2018-12-12T01:40:38.925Z,100.00
2018-12-12T01:45:24.147Z,100.00
2018-12-12T01:50:08.356Z,100.00
2018-12-12T01:54:53.437Z,100.00
2018-12-12T01:59:38.893Z,100.00
2018-12-12T02:04:24.172Z,100.00
2018-12-12T02:09:09.381Z,100.00
2018-12-12T02:13:56.184Z,100.00
2018-12-12T02:18:44.879Z,100.00
2018-12-12T02:23:30.722Z,100.00
2018-12-12T02:28:16.241Z,100.00
2018-12-12T02:33:00.728Z,100.00
2018-12-12T02:37:46.288Z,100.00
2018-12-12T02:42:32.006Z,100.00
2018-12-12T02:47:16.061Z,100.00
2018-12-12T02:52:01.288Z,100.00
2018-12-12T02:56:46.500Z,100.00
2018-12-12T03:01:31.826Z,100.00
2018-12-12T03:06:17.046Z,100.00
2018-12-12T03:11:02.765Z,100.00
2018-12-12T03:15:47.860Z,100.00
2018-12-12T03:20:33.073Z,100.00
2018-12-12T03:25:18.831Z,100.00
2018-12-12T03:30:05.170Z,100.00
2018-12-12T03:34:49.445Z,100.00
2018-12-12T03:39:36.158Z,100.00
2018-12-12T03:44:20.308Z,100.00
2018-12-12T03:49:05.584Z,100.00
2018-12-12T03:53:50.881Z,100.00
2018-12-12T03:58:35.169Z,100.00
2018-12-12T04:03:21.716Z,100.00
2018-12-12T04:08:06.657Z,100.00
2018-12-12T04:12:50.801Z,100.00
2018-12-12T04:17:35.490Z,100.00
2018-12-12T04:22:21.852Z,100.00
2018-12-12T04:27:06.083Z,100.00
2018-12-12T04:31:51.291Z,100.00
2018-12-12T04:36:36.761Z,100.00
2018-12-12T04:41:21.648Z,100.00
2018-12-12T04:46:06.857Z,100.00
2018-12-12T04:50:51.168Z,100.00
2018-12-12T04:55:36.385Z,100.00
2018-12-12T05:00:21.888Z,100.00
2018-12-12T05:05:06.156Z,100.00
2018-12-12T05:09:51.545Z,100.00
2018-12-12T05:14:37.178Z,100.00
2018-12-12T05:19:22.680Z,100.00
2018-12-12T05:24:06.949Z,100.00
2018-12-12T05:28:52.831Z,100.00
2018-12-12T05:33:38.598Z,100.00
2018-12-12T05:38:22.807Z,100.00
2018-12-12T05:43:09.049Z,100.00
2018-12-12T05:47:54.165Z,100.00
2018-12-12T05:52:40.416Z,100.00
2018-12-12T05:57:24.917Z,100.00
2018-12-12T06:02:10.881Z,100.00
2018-12-12T06:06:55.484Z,100.00
2018-12-12T06:11:42.407Z,100.00
2018-12-12T06:16:26.484Z,100.00
2018-12-12T06:21:12.849Z,100.00
2018-12-12T06:25:58.590Z,100.00
2018-12-12T06:30:47.367Z,100.00
2018-12-12T06:35:31.550Z,100.00
2018-12-12T06:40:21.148Z,100.00
2018-12-12T06:45:06.757Z,100.00
2018-12-12T06:49:52.166Z,100.00
2018-12-12T06:54:37.299Z,100.00
2018-12-12T06:59:22.500Z,100.00
2018-12-12T07:04:07.784Z,100.00
2018-12-12T07:08:53.947Z,100.00
2018-12-12T07:13:39.136Z,100.00
2018-12-12T07:18:24.346Z,100.00
2018-12-12T07:23:09.645Z,100.00
2018-12-12T07:27:55.516Z,100.00
2018-12-12T07:32:41.891Z,100.00
2018-12-12T07:37:26.431Z,100.00
2018-12-12T07:42:13.099Z,100.00
2018-12-12T07:46:57.744Z,100.00
2018-12-12T07:51:43.059Z,100.00
2018-12-12T07:56:28.358Z,100.00
2018-12-12T08:01:13.436Z,100.00
2018-12-12T08:05:58.350Z,100.00
2018-12-12T08:10:44.248Z,100.00
2018-12-12T08:15:29.365Z,100.00
2018-12-12T08:20:13.404Z,100.00
2018-12-12T08:24:58.842Z,100.00
2018-12-12T08:29:44.361Z,100.00
2018-12-12T08:34:29.611Z,100.00
2018-12-12T08:39:14.017Z,100.00
2018-12-12T08:43:59.326Z,100.00
2018-12-12T08:48:45.668Z,100.00
2018-12-12T08:53:30.922Z,100.00
2018-12-12T08:58:16.480Z,100.00
2018-12-12T09:03:02.820Z,100.00
2018-12-12T09:07:46.966Z,100.00
2018-12-12T09:12:32.306Z,100.00
2018-12-12T09:17:17.595Z,100.00
2018-12-12T09:22:03.106Z,100.00
2018-12-12T09:26:48.318Z,100.00
2018-12-12T09:31:36.960Z,100.00
2018-12-12T09:36:22.136Z,100.00
2018-12-12T09:41:08.639Z,100.00
2018-12-12T09:45:53.962Z,100.00
2018-12-12T09:50:39.342Z,100.00
2018-12-12T09:55:24.602Z,100.00
2018-12-12T10:00:11.452Z,100.00
2018-12-12T10:04:56.691Z,100.00
2018-12-12T10:09:40.939Z,100.00
2018-12-12T10:14:25.082Z,99.40
2018-12-12T10:19:10.396Z,96.11
2018-12-12T10:23:55.669Z,93.66
2018-12-12T10:28:41.485Z,93.85
2018-12-12T10:33:26.601Z,91.28
2018-12-12T10:38:11.807Z,94.00
2018-12-12T10:42:57.628Z,93.08
2018-12-12T10:47:43.035Z,94.29
2018-12-12T10:52:27.279Z,92.58
2018-12-12T10:57:11.549Z,94.94
2018-12-12T11:02:02.745Z,97.27
2018-12-12T11:06:47.102Z,97.77
2018-12-12T11:11:31.494Z,97.35
2018-12-12T11:16:17.115Z,96.66
2018-12-12T11:21:02.393Z,97.88
2018-12-12T11:25:47.662Z,96.89
2018-12-12T11:30:33.063Z,94.66
2018-12-12T11:35:18.248Z,95.47
2018-12-12T11:40:04.959Z,95.61
2018-12-12T11:44:49.591Z,98.98
2018-12-12T11:49:35.756Z,99.42
2018-12-12T11:54:20.001Z,100.00
2018-12-12T11:59:06.413Z,100.00
2018-12-12T12:03:56.773Z,100.00
2018-12-12T12:08:38.080Z,98.36
2018-12-12T12:13:22.837Z,95.67
2018-12-12T12:18:08.929Z,98.13
2018-12-12T12:22:53.473Z,98.37
2018-12-12T12:27:39.071Z,98.64
2018-12-12T12:32:23.949Z,98.72
2018-12-12T12:37:09.083Z,99.41
2018-12-12T12:41:54.301Z,94.63
2018-12-12T12:46:39.577Z,95.27
2018-12-12T12:51:24.693Z,99.98
2018-12-12T12:56:09.763Z,100.00
2018-12-12T13:00:55.906Z,100.00
2018-12-12T13:05:40.153Z,100.00
2018-12-12T13:10:25.472Z,100.00
2018-12-12T13:15:11.143Z,100.00
2018-12-12T13:19:57.243Z,99.32
2018-12-12T13:24:42.445Z,99.33
2018-12-12T13:29:26.701Z,100.00
2018-12-12T13:34:16.224Z,100.00
2018-12-12T13:39:02.174Z,100.00
2018-12-12T13:43:47.366Z,100.00
2018-12-12T13:48:32.689Z,100.00
2018-12-12T13:53:18.416Z,100.00
2018-12-12T13:58:04.789Z,99.22
2018-12-12T14:02:50.019Z,100.00
2018-12-12T14:07:35.189Z,100.00
2018-12-12T14:12:19.901Z,100.00
2018-12-12T14:17:05.628Z,100.00
2018-12-12T14:21:50.618Z,100.00
2018-12-12T14:26:35.883Z,100.00
2018-12-12T14:31:21.102Z,100.00
2018-12-12T14:36:06.184Z,100.00
2018-12-12T14:40:52.844Z,100.00
2018-12-12T14:45:38.081Z,100.00
2018-12-12T14:50:22.164Z,100.00
2018-12-12T14:55:07.438Z,100.00
2018-12-12T14:59:52.806Z,100.00
2018-12-12T15:04:38.090Z,100.00
2018-12-12T15:09:22.326Z,100.00
2018-12-12T15:14:06.573Z,100.00
2018-12-12T15:18:51.865Z,100.00
2018-12-12T15:23:37.020Z,100.00
2018-12-12T15:28:22.238Z,100.00
2018-12-12T15:33:06.389Z,100.00
2018-12-12T15:37:51.600Z,100.00
2018-12-12T15:42:36.764Z,100.00
2018-12-12T15:47:20.998Z,100.00
2018-12-12T15:52:06.311Z,99.24
2018-12-12T15:56:50.583Z,100.00
2018-12-12T16:01:34.904Z,100.00
2018-12-12T16:06:20.163Z,100.00
2018-12-12T16:11:08.334Z,100.00
2018-12-12T16:15:54.068Z,100.00
2018-12-12T16:20:39.937Z,100.00
2018-12-12T16:25:25.682Z,100.00
2018-12-12T16:30:11.589Z,100.00
2018-12-12T16:34:55.966Z,100.00
2018-12-12T16:39:42.023Z,100.00
2018-12-12T16:44:27.253Z,100.00
2018-12-12T16:49:13.673Z,100.00
2018-12-12T16:53:58.767Z,100.00
2018-12-12T16:58:45.329Z,100.00
2018-12-12T17:03:30.897Z,100.00
2018-12-12T17:08:15.147Z,100.00
2018-12-12T17:13:00.487Z,100.00
2018-12-12T17:17:49.651Z,100.00
2018-12-12T17:22:33.952Z,100.00
2018-12-12T17:27:19.211Z,100.00
2018-12-12T17:32:04.537Z,100.00
2018-12-12T17:36:49.066Z,100.00
2018-12-12T17:41:34.817Z,100.00
2018-12-12T17:46:19.247Z,100.00
2018-12-12T17:51:03.677Z,100.00
2018-12-12T17:55:49.636Z,100.00
2018-12-12T18:00:34.990Z,100.00
2018-12-12T18:05:19.289Z,100.00
2018-12-12T18:10:08.433Z,100.00
2018-12-12T18:14:53.735Z,100.00
2018-12-12T18:19:40.195Z,100.00
2018-12-12T18:24:27.817Z,100.00
2018-12-12T18:29:12.941Z,100.00
2018-12-12T18:33:57.357Z,100.00
2018-12-12T18:38:45.946Z,100.00
2018-12-12T18:43:30.279Z,100.00
2018-12-12T18:48:16.594Z,100.00
2018-12-12T18:53:03.248Z,100.00
2018-12-12T18:57:48.501Z,100.00
2018-12-12T19:02:33.754Z,100.00
2018-12-12T19:07:18.097Z,100.00
2018-12-12T19:12:04.146Z,100.00
2018-12-12T19:16:50.467Z,100.00
2018-12-12T19:21:36.386Z,100.00
2018-12-12T19:26:20.686Z,100.00
2018-12-12T19:31:06.898Z,100.00
2018-12-12T19:35:52.173Z,100.00
2018-12-12T19:40:36.459Z,100.00
2018-12-12T19:45:23.648Z,100.00
2018-12-12T19:50:10.507Z,100.00
2018-12-12T19:54:55.845Z,100.00
2018-12-12T19:59:42.347Z,100.00
2018-12-12T20:04:27.212Z,100.00
2018-12-12T20:09:13.018Z,100.00
2018-12-12T20:13:59.492Z,100.00
2018-12-12T20:18:44.892Z,100.00
2018-12-12T20:23:29.252Z,100.00
2018-12-12T20:28:17.755Z,100.00
2018-12-12T20:33:03.061Z,100.00
2018-12-12T20:37:48.473Z,100.00
2018-12-12T20:42:32.593Z,100.00
2018-12-12T20:47:17.883Z,100.00
2018-12-12T20:52:02.633Z,100.00
2018-12-12T20:56:53.554Z,100.00
2018-12-12T21:01:37.910Z,100.00
2018-12-12T21:06:23.139Z,100.00
2018-12-12T21:11:07.971Z,100.00
2018-12-12T21:15:53.518Z,100.00
2018-12-12T21:20:39.005Z,100.00
2018-12-12T21:25:36.685Z,100.00
2018-12-12T21:30:22.171Z,100.00
2018-12-12T21:35:07.589Z,100.00
2018-12-12T21:39:54.385Z,100.00
2018-12-12T21:44:38.648Z,100.00
2018-12-12T21:49:25.615Z,100.00
2018-12-12T21:54:09.834Z,100.00
2018-12-12T21:58:56.166Z,100.00
2018-12-12T22:03:41.349Z,100.00
2018-12-12T22:08:26.786Z,100.00
2018-12-12T22:13:11.886Z,100.00
2018-12-12T22:17:57.527Z,100.00
2018-12-12T22:22:44.469Z,100.00
2018-12-12T22:27:33.442Z,100.00
2018-12-12T22:32:18.517Z,100.00
2018-12-12T22:37:03.923Z,100.00
2018-12-12T22:41:49.071Z,100.00
2018-12-12T22:46:33.349Z,100.00
2018-12-12T22:51:18.574Z,100.00
2018-12-12T22:56:03.835Z,100.00
2018-12-12T23:00:54.469Z,100.00
2018-12-12T23:05:38.768Z,100.00
2018-12-12T23:10:24.142Z,100.00
2018-12-12T23:15:09.198Z,100.00
2018-12-12T23:19:54.421Z,100.00
2018-12-12T23:24:38.613Z,100.00
2018-12-12T23:29:27.139Z,100.00
2018-12-12T23:34:12.126Z,100.00
2018-12-12T23:38:57.219Z,100.00
2018-12-12T23:43:42.466Z,100.00
2018-12-12T23:48:27.631Z,100.00
2018-12-12T23:53:12.781Z,100.00
2018-12-12T23:57:57.008Z,100.00
